Miami International Airport
KMIA : now visible

Airfield :











YOU CAN JOIN US ON...

 
LOGIN :

Register | Disclaimer

   EN    FR    IT 

 









Legend :    VFR   Marginal VFR   IFR   Intensive IFR   Very Intensive IFR
Visi :
Ceiling :
>= 8 km
>= 3000ft
5 to 8 km
1000 to 3000 ft
1500m to 5 km
500 to 1000 ft
800 to 1500m
200 to 500 ft
< 800m
< 200 ft
Symbols :   Thunderstorms  Fog  Heavy snow  Heavy precipitations  Wind > 20 kt






- Airport Elevation : 8 ft
- IATA code : MIA


KMIA - Miami International

CURRENT METAR :
  • 072053Z 11012G19KT 10SM SCT032 29/21 A3001 RMK AO2 SLP160 T02890211 56018

EXPIRED METARs :
  • 071953Z 11013KT 10SM BKN030 30/21 A3001 RMK AO2 SLP162 T03000206
  • 071853Z 11010G16KT 10SM BKN033 29/21 A3003 RMK AO2 SLP169 T02940206

TAF KMIA
Valid from the 07 at 21:00 until the 09 at 00:00 UTC


072039Z 0721/0824 11011KT P6SM SCT025 BKN035
FM080200 15008KT P6SM FEW020 SCT250
FM080900 VRB05KT P6SM SCT020 BKN050
FM081500 24011KT P6SM FEW250



MET'MAP, your aeronautical weather chart ! - Copyright ORBIFLY December 2007 - Disclaimer

ORBIFLY MET'MAP TEAM :

Programming & Development : Alexandra Zaïnal
Concept & original design : Baudouin d'Aumeries
Assistance for programming : Marc-Olivier Méhu
Technical & hardware support : Manuel Goepfert

Contact : metmap@orbifly.com




SOURCES & CREDITS :

   NOAA       Earth
Advisory